createdAt,value
2022-11-28T00:01:29.597Z,101199.00
2022-11-28T00:03:56.538Z,101188.00
2022-11-28T00:06:24.033Z,101178.00
2022-11-28T00:08:50.915Z,101183.00
2022-11-28T00:11:17.962Z,101182.00
2022-11-28T00:13:45.539Z,101177.00
2022-11-28T00:16:21.560Z,101179.00
2022-11-28T00:18:49.879Z,101178.00
2022-11-28T00:21:16.667Z,101167.00
2022-11-28T00:23:44.532Z,101169.00
2022-11-28T00:26:19.830Z,101160.00
2022-11-28T00:28:47.005Z,101166.00
2022-11-28T00:31:18.591Z,101149.00
2022-11-28T00:33:45.718Z,101150.00
2022-11-28T00:36:13.303Z,101143.00
2022-11-28T00:38:40.521Z,101161.00
2022-11-28T00:41:10.020Z,101140.00
2022-11-28T00:43:37.153Z,101137.00
2022-11-28T00:46:04.273Z,101133.00
2022-11-28T00:48:32.500Z,101134.00
2022-11-28T00:51:09.418Z,101122.00
2022-11-28T00:53:37.000Z,101130.00
2022-11-28T00:56:05.700Z,101122.00
2022-11-28T00:58:33.537Z,101116.00
2022-11-28T01:01:01.214Z,101122.00
2022-11-28T01:03:28.035Z,101137.00
2022-11-28T01:05:54.760Z,101130.00
2022-11-28T01:08:21.495Z,101121.00
2022-11-28T01:10:48.216Z,101133.00
2022-11-28T01:13:15.034Z,101126.00
2022-11-28T01:15:42.775Z,101109.00
2022-11-28T01:18:10.005Z,101115.00
2022-11-28T01:20:36.801Z,101103.00
2022-11-28T01:23:03.633Z,101102.00
2022-11-28T01:25:30.555Z,101102.00
2022-11-28T01:27:57.309Z,101086.00
2022-11-28T01:30:24.283Z,101081.00
2022-11-28T01:32:51.008Z,101082.00
2022-11-28T01:35:17.794Z,101088.00
2022-11-28T01:37:44.596Z,101079.00
2022-11-28T01:40:13.020Z,101081.00
2022-11-28T01:42:39.923Z,101086.00
2022-11-28T01:45:24.930Z,101088.00
2022-11-28T01:47:53.719Z,101079.00
2022-11-28T01:50:21.857Z,101073.00
2022-11-28T01:52:52.039Z,101080.00
2022-11-28T01:55:22.053Z,101066.00
2022-11-28T01:57:48.936Z,101075.00
2022-11-28T02:00:20.232Z,101070.00
2022-11-28T02:03:03.648Z,101056.00
2022-11-28T02:05:30.454Z,101053.00
2022-11-28T02:07:57.266Z,101043.00
2022-11-28T02:10:31.899Z,101033.00
2022-11-28T02:13:17.369Z,101034.00
2022-11-28T02:16:11.306Z,101038.00
2022-11-28T02:19:16.865Z,101049.00
2022-11-28T02:21:53.610Z,101031.00
2022-11-28T02:24:49.876Z,101031.00
2022-11-28T02:27:38.821Z,101047.00
2022-11-28T02:30:40.860Z,101029.00
2022-11-28T02:33:25.790Z,101024.00
2022-11-28T02:35:59.282Z,101032.00
2022-11-28T02:38:39.010Z,101013.00
2022-11-28T02:41:45.955Z,100999.00
2022-11-28T02:44:18.832Z,101000.00
2022-11-28T02:46:57.971Z,100994.00
2022-11-28T02:49:46.840Z,100976.00
2022-11-28T02:52:17.847Z,100976.00
2022-11-28T02:54:45.585Z,100983.00
2022-11-28T02:57:12.319Z,100982.00
2022-11-28T02:59:39.231Z,100979.00
2022-11-28T03:02:23.829Z,100973.00
2022-11-28T03:04:54.379Z,100972.00
2022-11-28T03:07:40.192Z,100974.00
2022-11-28T03:10:32.535Z,100964.00
2022-11-28T03:13:10.472Z,100948.00
2022-11-28T03:16:00.549Z,100933.00
2022-11-28T03:18:33.968Z,100948.00
2022-11-28T03:21:08.009Z,100949.00
2022-11-28T03:23:44.763Z,100924.00
2022-11-28T03:26:27.923Z,100898.00
2022-11-28T03:29:06.995Z,100886.00
2022-11-28T03:31:43.875Z,100883.00
2022-11-28T03:34:14.615Z,100874.00
2022-11-28T03:36:49.148Z,100890.00
2022-11-28T03:39:18.585Z,100894.00
2022-11-28T03:42:04.953Z,100889.00
2022-11-28T03:44:57.244Z,100895.00
2022-11-28T03:47:33.962Z,100879.00
2022-11-28T03:50:05.230Z,100898.00
2022-11-28T03:52:45.803Z,100909.00
2022-11-28T03:55:21.857Z,100897.00
2022-11-28T03:57:58.682Z,100899.00
2022-11-28T04:00:25.766Z,100921.00
2022-11-28T04:03:18.219Z,100919.00
2022-11-28T04:05:53.893Z,100921.00
2022-11-28T04:08:27.655Z,100921.00
2022-11-28T04:11:22.672Z,100918.00
2022-11-28T04:14:05.059Z,100924.00
2022-11-28T04:16:48.212Z,100911.00
2022-11-28T04:19:23.548Z,100920.00
2022-11-28T04:22:02.006Z,100943.00
2022-11-28T04:24:34.842Z,100949.00
2022-11-28T04:27:04.993Z,100943.00
2022-11-28T04:29:38.771Z,100925.00
2022-11-28T04:32:06.207Z,100914.00
2022-11-28T04:34:34.724Z,100927.00
2022-11-28T04:37:09.588Z,100926.00
2022-11-28T04:39:37.565Z,100926.00
2022-11-28T04:42:10.791Z,100934.00
2022-11-28T04:44:53.396Z,100919.00
2022-11-28T04:47:20.196Z,100922.00
2022-11-28T04:49:46.995Z,100904.00
2022-11-28T04:52:29.059Z,100893.00
2022-11-28T04:55:32.673Z,100895.00
2022-11-28T04:58:10.163Z,100887.00
2022-11-28T05:00:37.537Z,100892.00
2022-11-28T05:03:05.553Z,100879.00
2022-11-28T05:05:40.924Z,100914.00
2022-11-28T05:08:07.684Z,100913.00
2022-11-28T05:10:35.030Z,100904.00
2022-11-28T05:13:02.014Z,100902.00
2022-11-28T05:15:28.797Z,100908.00
2022-11-28T05:17:55.578Z,100916.00
2022-11-28T05:20:22.336Z,100918.00
2022-11-28T05:22:49.124Z,100929.00
2022-11-28T05:25:16.205Z,100919.00
2022-11-28T05:27:42.994Z,100903.00
2022-11-28T05:30:10.398Z,100910.00
2022-11-28T05:32:37.356Z,100896.00
2022-11-28T05:35:04.573Z,100903.00
2022-11-28T05:37:31.394Z,100905.00
2022-11-28T05:39:58.139Z,100890.00
2022-11-28T05:42:25.965Z,100888.00
2022-11-28T05:44:52.775Z,100892.00
2022-11-28T05:47:19.530Z,100904.00
2022-11-28T05:49:46.946Z,100921.00
2022-11-28T05:52:13.710Z,100900.00
2022-11-28T05:54:40.443Z,100910.00
2022-11-28T05:57:07.559Z,100899.00
2022-11-28T05:59:34.703Z,100895.00
2022-11-28T06:02:01.532Z,100903.00
2022-11-28T06:04:28.691Z,100916.00
2022-11-28T06:06:55.505Z,100932.00
2022-11-28T06:09:25.788Z,100926.00
2022-11-28T06:11:53.254Z,100919.00
2022-11-28T06:14:20.080Z,100914.00
2022-11-28T06:16:47.097Z,100900.00
2022-11-28T06:19:13.944Z,100905.00
2022-11-28T06:21:41.077Z,100912.00
2022-11-28T06:24:09.699Z,100903.00
2022-11-28T06:26:36.732Z,100918.00
2022-11-28T06:29:03.604Z,100914.00
2022-11-28T06:31:30.482Z,100906.00
2022-11-28T06:33:58.212Z,100909.00
2022-11-28T06:36:26.307Z,100896.00
2022-11-28T06:38:53.584Z,100903.00
2022-11-28T06:41:21.418Z,100906.00
2022-11-28T06:43:48.745Z,100913.00
2022-11-28T06:46:20.732Z,100926.00
2022-11-28T06:48:49.372Z,100946.00
2022-11-28T06:51:16.877Z,100943.00
2022-11-28T06:53:43.723Z,100943.00
2022-11-28T06:56:15.905Z,100958.00
2022-11-28T06:58:43.449Z,100949.00
2022-11-28T07:01:18.856Z,100949.00
2022-11-28T07:03:46.420Z,100948.00
2022-11-28T07:06:15.325Z,100945.00
2022-11-28T07:08:42.706Z,100944.00
2022-11-28T07:11:24.714Z,100947.00
2022-11-28T07:13:52.490Z,100943.00
2022-11-28T07:16:24.763Z,100946.00
2022-11-28T07:18:52.260Z,100944.00
2022-11-28T07:21:19.750Z,100952.00
2022-11-28T07:23:47.354Z,100949.00
2022-11-28T07:26:16.538Z,100963.00
2022-11-28T07:28:44.129Z,100955.00
2022-11-28T07:31:19.377Z,100939.00
2022-11-28T13:55:44.757Z,100957.00
2022-11-28T13:58:18.911Z,100952.00
2022-11-28T14:01:12.143Z,100960.00
2022-11-28T14:03:46.972Z,100947.00
2022-11-28T14:06:19.081Z,100947.00
2022-11-28T14:08:47.107Z,100955.00
2022-11-28T14:11:13.892Z,100965.00
2022-11-28T14:13:57.794Z,100958.00
2022-11-28T14:16:57.739Z,100958.00
2022-11-28T14:19:43.368Z,100964.00
2022-11-28T14:22:34.402Z,100971.00
2022-11-28T14:25:29.596Z,100986.00
2022-11-28T14:27:59.430Z,100967.00
2022-11-28T14:30:39.042Z,100964.00
2022-11-28T14:33:16.425Z,100959.00
2022-11-28T14:36:26.083Z,100967.00
2022-11-28T14:39:15.925Z,100960.00
2022-11-28T14:42:04.657Z,100954.00
2022-11-28T14:44:56.642Z,100957.00
2022-11-28T14:47:42.507Z,100941.00
2022-11-28T14:50:09.378Z,100944.00
2022-11-28T14:52:41.301Z,100946.00
2022-11-28T14:55:15.800Z,100952.00
2022-11-28T14:57:54.808Z,100949.00
2022-11-28T15:00:32.548Z,100953.00
2022-11-28T15:03:36.353Z,100952.00
2022-11-28T15:06:09.853Z,100937.00
2022-11-28T15:09:04.411Z,100952.00
2022-11-28T15:12:08.584Z,100929.00
2022-11-28T15:14:35.642Z,100941.00
2022-11-28T15:17:05.903Z,100938.00
2022-11-28T15:19:47.634Z,100952.00
2022-11-28T15:22:42.665Z,100948.00
2022-11-28T15:25:24.998Z,100950.00
2022-11-28T15:27:52.402Z,100948.00
2022-11-28T15:30:22.696Z,100954.00
2022-11-28T15:32:49.818Z,100963.00
2022-11-28T15:35:20.364Z,100967.00
2022-11-28T15:37:50.603Z,100954.00
2022-11-28T15:40:24.038Z,100959.00
2022-11-28T15:42:51.186Z,100946.00
2022-11-28T15:45:20.919Z,100960.00
2022-11-28T15:47:49.258Z,100968.00
2022-11-28T15:50:19.512Z,100959.00
2022-11-28T15:52:55.015Z,100968.00
2022-11-28T15:55:22.260Z,100962.00
2022-11-28T15:57:49.564Z,100969.00
2022-11-28T16:00:18.812Z,100965.00
2022-11-28T16:02:46.122Z,100970.00
2022-11-28T16:05:21.688Z,100962.00
2022-11-28T16:07:50.831Z,100966.00
2022-11-28T16:10:24.727Z,100966.00
2022-11-28T16:12:55.394Z,100969.00
2022-11-28T16:15:23.532Z,100969.00
2022-11-28T16:17:50.464Z,100974.00
2022-11-28T16:20:22.688Z,100970.00
2022-11-28T16:22:49.568Z,100980.00
2022-11-28T16:25:24.826Z,100980.00
2022-11-28T16:27:56.550Z,100971.00
2022-11-28T16:30:37.206Z,100968.00
2022-11-28T16:33:37.327Z,100985.00
2022-11-28T16:36:21.047Z,100980.00
2022-11-28T16:38:50.154Z,100989.00
2022-11-28T16:41:21.324Z,100985.00
2022-11-28T16:43:52.460Z,100985.00
2022-11-28T16:46:22.104Z,100985.00
2022-11-28T16:48:59.305Z,100991.00
2022-11-28T16:51:25.984Z,100994.00
2022-11-28T16:54:02.693Z,101001.00
2022-11-28T16:56:29.580Z,101002.00
2022-11-28T16:59:19.791Z,100995.00
2022-11-28T17:01:48.395Z,101009.00
2022-11-28T17:04:26.671Z,101015.00
2022-11-28T17:06:55.697Z,101009.00
2022-11-28T17:09:22.893Z,101010.00
2022-11-28T17:12:13.246Z,101030.00
2022-11-28T17:14:40.295Z,101028.00
2022-11-28T17:17:18.255Z,101026.00
2022-11-28T17:19:46.007Z,101041.00
2022-11-28T17:22:30.459Z,101040.00
2022-11-28T17:25:00.082Z,101029.00
2022-11-28T17:27:27.207Z,101037.00
2022-11-28T17:29:54.029Z,101029.00
2022-11-28T17:32:20.845Z,101037.00
2022-11-28T17:34:47.746Z,101035.00
2022-11-28T17:37:14.541Z,101031.00
2022-11-28T17:40:05.115Z,101035.00
2022-11-28T17:42:32.102Z,101038.00
2022-11-28T21:26:15.886Z,101123.00
2022-11-28T21:28:44.421Z,101123.00
2022-11-28T21:31:18.051Z,101135.00
2022-11-28T21:33:53.172Z,101143.00
2022-11-28T21:36:20.394Z,101135.00
2022-11-28T21:38:51.105Z,101126.00
2022-11-28T21:41:18.519Z,101132.00
2022-11-28T21:43:45.465Z,101121.00
2022-11-28T21:46:12.485Z,101114.00
2022-11-28T21:48:39.820Z,101117.00
2022-11-28T21:51:06.684Z,101118.00
2022-11-28T21:53:34.155Z,101120.00
2022-11-28T21:56:02.058Z,101123.00
2022-11-28T21:58:30.605Z,101135.00
2022-11-28T22:01:02.590Z,101136.00
2022-11-28T22:03:30.687Z,101127.00
2022-11-28T22:06:05.346Z,101131.00
2022-11-28T22:08:32.512Z,101133.00
2022-11-28T22:11:01.136Z,101141.00
2022-11-28T22:13:28.260Z,101140.00
2022-11-28T22:15:55.155Z,101138.00
2022-11-28T22:18:21.991Z,101139.00
2022-11-28T22:20:52.876Z,101141.00
2022-11-28T22:23:20.062Z,101151.00
2022-11-28T22:25:52.181Z,101144.00
2022-11-28T22:28:19.098Z,101144.00
2022-11-28T22:30:46.335Z,101160.00
2022-11-28T22:33:13.290Z,101150.00
2022-11-28T22:35:40.052Z,101150.00
2022-11-28T22:38:06.792Z,101151.00
2022-11-28T22:40:33.620Z,101149.00
2022-11-28T22:43:00.413Z,101154.00
2022-11-28T22:45:27.277Z,101145.00
2022-11-28T22:47:54.060Z,101146.00
2022-11-28T22:50:20.820Z,101146.00
2022-11-28T22:52:47.604Z,101142.00
2022-11-28T22:55:14.593Z,101154.00
2022-11-28T22:57:41.383Z,101148.00
2022-11-28T23:00:09.060Z,101153.00
2022-11-28T23:02:36.070Z,101154.00
2022-11-28T23:05:03.326Z,101147.00
2022-11-28T23:07:30.242Z,101166.00
2022-11-28T23:09:57.085Z,101174.00
2022-11-28T23:12:23.914Z,101166.00
2022-11-28T23:14:51.768Z,101171.00
2022-11-28T23:17:18.529Z,101175.00
2022-11-28T23:19:45.419Z,101179.00
2022-11-28T23:22:12.183Z,101167.00
2022-11-28T23:24:39.187Z,101184.00
2022-11-28T23:27:05.976Z,101182.00
2022-11-28T23:29:32.831Z,101175.00
2022-11-28T23:31:59.662Z,101171.00
2022-11-28T23:34:26.542Z,101171.00
2022-11-28T23:36:53.299Z,101182.00
2022-11-28T23:39:21.611Z,101170.00
2022-11-28T23:41:48.959Z,101164.00
2022-11-28T23:44:17.017Z,101176.00
2022-11-28T23:46:44.435Z,101182.00
2022-11-28T23:49:12.256Z,101175.00
2022-11-28T23:51:40.508Z,101161.00
2022-11-28T23:54:08.569Z,101166.00
2022-11-28T23:56:36.925Z,101167.00
2022-11-28T23:59:05.450Z,101171.00
